地図

経路データ

SID SEASON NUMBER BASIN SUBBASIN NAME ISO_TIME NATURE LAT LON WMO_WIND WMO_PRES WMO_AGENCY TRACK_TYPE DIST2LAND LANDFALL IFLAG USA_AGENCY USA_ATCF_ID USA_LAT USA_LON USA_RECORD USA_STATUS USA_WIND USA_PRES USA_SSHS USA_R34_NE USA_R34_SE USA_R34_SW USA_R34_NW USA_R50_NE USA_R50_SE USA_R50_SW USA_R50_NW USA_R64_NE USA_R64_SE USA_R64_SW USA_R64_NW USA_POCI USA_ROCI USA_RMW USA_EYE TOKYO_LAT TOKYO_LON TOKYO_GRADE TOKYO_WIND TOKYO_PRES TOKYO_R50_DIR TOKYO_R50_LONG TOKYO_R50_SHORT TOKYO_R30_DIR TOKYO_R30_LONG TOKYO_R30_SHORT TOKYO_LAND CMA_LAT CMA_LON CMA_CAT CMA_WIND CMA_PRES HKO_LAT HKO_LON HKO_CAT HKO_WIND HKO_PRES NEWDELHI_LAT NEWDELHI_LON NEWDELHI_GRADE NEWDELHI_WIND NEWDELHI_PRES NEWDELHI_CI NEWDELHI_DP NEWDELHI_POCI REUNION_LAT REUNION_LON REUNION_TYPE REUNION_WIND REUNION_PRES REUNION_TNUM REUNION_CI REUNION_RMW REUNION_R34_NE REUNION_R34_SE REUNION_R34_SW REUNION_R34_NW REUNION_R50_NE REUNION_R50_SE REUNION_R50_SW REUNION_R50_NW REUNION_R64_NE REUNION_R64_SE REUNION_R64_SW REUNION_R64_NW BOM_LAT BOM_LON BOM_TYPE BOM_WIND BOM_PRES BOM_TNUM BOM_CI BOM_RMW BOM_R34_NE BOM_R34_SE BOM_R34_SW BOM_R34_NW BOM_R50_NE BOM_R50_SE BOM_R50_SW BOM_R50_NW BOM_R64_NE BOM_R64_SE BOM_R64_SW BOM_R64_NW BOM_ROCI BOM_POCI BOM_EYE BOM_POS_METHOD BOM_PRES_METHOD NADI_LAT NADI_LON NADI_CAT NADI_WIND NADI_PRES WELLINGTON_LAT WELLINGTON_LON WELLINGTON_WIND WELLINGTON_PRES DS824_LAT DS824_LON DS824_STAGE DS824_WIND DS824_PRES TD9636_LAT TD9636_LON TD9636_STAGE TD9636_WIND TD9636_PRES TD9635_LAT TD9635_LON TD9635_WIND TD9635_PRES TD9635_ROCI NEUMANN_LAT NEUMANN_LON NEUMANN_CLASS NEUMANN_WIND NEUMANN_PRES MLC_LAT MLC_LON MLC_CLASS MLC_WIND MLC_PRES USA_GUST BOM_GUST BOM_GUST_PER REUNION_GUST REUNION_GUST_PER USA_SEAHGT USA_SEARAD_NE USA_SEARAD_SE USA_SEARAD_SW USA_SEARAD_NW STORM_SPEED STORM_DIR
1896243N14300 1896 29 NA CS NOT_NAMED 1896-08-30 06:00:00 TS 14.0000 -59.6000 35 hurdat_atl main 399 395 O____________O hurdat_atl AL021896 14.0000 -59.6000 TS 35 0 14.0000 -59.6000 TD 30 10 301
1896243N14300 1896 29 NA CS NOT_NAMED 1896-08-30 09:00:00 TS 14.2602 -60.0523 main 414 412 P____________P AL021896 14.2602 -60.0523 TS 42 0 14.2602 -60.0523 TD 30 10 300
1896243N14300 1896 29 NA CS NOT_NAMED 1896-08-30 12:00:00 TS 14.5000 -60.5000 50 hurdat_atl main 428 427 O____________O hurdat_atl AL021896 14.5000 -60.5000 TS 50 0 14.5000 -60.5000 TD 30 10 297
1896243N14300 1896 29 NA CS NOT_NAMED 1896-08-30 15:00:00 TS 14.7074 -60.9426 main 448 447 P____________P AL021896 14.7074 -60.9426 TS 57 0 14.7074 -60.9426 TD 30 10 295
1896243N14300 1896 29 NA CS NOT_NAMED 1896-08-30 18:00:00 TS 14.9000 -61.4000 65 hurdat_atl main 470 470 O____________O hurdat_atl AL021896 14.9000 -61.4000 HU 65 1 14.9000 -61.4000 TD 30 10 293
1896243N14300 1896 29 NA CS NOT_NAMED 1896-08-30 21:00:00 TS 15.0925 -61.9001 main 493 470 P____________P AL021896 15.0925 -61.9001 HU 72 1 15.0925 -61.9001 TD 30 10 292
1896243N14300 1896 29 NA CS NOT_NAMED 1896-08-31 00:00:00 TS 15.3000 -62.4000 80 hurdat_atl main 470 424 O____________O hurdat_atl AL021896 15.3000 -62.4000 HU 80 1 15.3000 -62.4000 TD 30 10 296
1896243N14300 1896 29 NA CS NOT_NAMED 1896-08-31 03:00:00 TS 15.5424 -62.8576 main 416 362 P____________P AL021896 15.5424 -62.8576 HU 82 1 15.5424 -62.8576 TD 30 10 300
1896243N14300 1896 29 NA CS NOT_NAMED 1896-08-31 06:00:00 TS 15.8000 -63.3000 85 hurdat_atl main 362 316 O____________O hurdat_atl AL021896 15.8000 -63.3000 HU 85 2 15.8000 -63.3000 TD 30 10 300
1896243N14300 1896 29 NA CS NOT_NAMED 1896-08-31 09:00:00 TS 16.0424 -63.7502 main 308 255 P____________P AL021896 16.0424 -63.7502 HU 85 2 16.0424 -63.7502 TD 32 10 300
1896243N14300 1896 29 NA CS NOT_NAMED 1896-08-31 12:00:00 TS 16.3000 -64.2000 85 hurdat_atl main 255 201 O____________O hurdat_atl AL021896 16.3000 -64.2000 HU 85 2 16.3000 -64.2000 TS 35 10 302
1896243N14300 1896 29 NA CS NOT_NAMED 1896-08-31 15:00:00 TS 16.5924 -64.6501 main 195 143 P____________P AL021896 16.5924 -64.6501 HU 85 2 16.5924 -64.6501 TS 37 11 305
1896243N14300 1896 29 NA CS NOT_NAMED 1896-08-31 18:00:00 TS 16.9000 -65.1000 85 hurdat_atl main 143 94 O____________O hurdat_atl AL021896 16.9000 -65.1000 HU 85 2 16.9000 -65.1000 TS 40 11 305
1896243N14300 1896 29 NA CS NOT_NAMED 1896-08-31 21:00:00 TS 17.1999 -65.5501 main 91 49 P____________P AL021896 17.1999 -65.5501 HU 85 2 17.1999 -65.5501 TS 42 11 305
1896243N14300 1896 29 NA CS NOT_NAMED 1896-09-01 00:00:00 TS 17.5000 -66.0000 85 hurdat_atl main 49 22 O____________O hurdat_atl AL021896 17.5000 -66.0000 HU 85 2 17.5000 -66.0000 TS 45 11 305
1896243N14300 1896 29 NA CS NOT_NAMED 1896-09-01 03:00:00 TS 17.8074 -66.4501 main 22 0 P____________P AL021896 17.8074 -66.4501 HU 85 2 17.8074 -66.4501 TS 45 10 305
1896243N14300 1896 29 NA NA NOT_NAMED 1896-09-01 06:00:00 TS 18.1000 -66.9000 85 hurdat_atl main 0 0 O____________O hurdat_atl AL021896 18.1000 -66.9000 HU 85 2 18.1000 -66.9000 TS 45 10 303
1896243N14300 1896 29 NA CS NOT_NAMED 1896-09-01 09:00:00 TS 18.3649 -67.3551 main 10 10 P____________P AL021896 18.3649 -67.3576 HU 80 1 18.3649 -67.3501 TS 45 10 300
1896243N14300 1896 29 NA NA NOT_NAMED 1896-09-01 12:00:00 TS 18.6000 -67.8000 75 hurdat_atl main 52 23 O____________O hurdat_atl AL021896 18.6000 -67.8000 HU 75 1 18.6000 -67.8000 TS 45 9 298
1896243N14300 1896 29 NA NA NOT_NAMED 1896-09-01 15:00:00 TS 18.8124 -68.2318 main 24 15 P____________P AL021896 18.8150 -68.2226 HU 77 1 18.8074 -68.2502 TS 42 9 297
1896243N14300 1896 29 NA NA NOT_NAMED 1896-09-01 18:00:00 TS 19.0000 -68.6333 80 hurdat_atl main 22 15 O____________O hurdat_atl AL021896 19.0000 -68.6000 HU 80 1 19.0000 -68.7000 TS 40 8 296
1896243N14300 1896 29 NA NA NOT_NAMED 1896-09-01 21:00:00 TS 19.1690 -68.9910 main 21 0 P____________P AL021896 19.1498 -68.9077 HU 82 1 19.2074 -69.1575 TS 37 7 297
1896243N14300 1896 29 NA NA NOT_NAMED 1896-09-02 00:00:00 TS 19.3333 -69.3333 85 hurdat_atl main 0 0 O____________O hurdat_atl AL021896 19.3000 -69.2000 HU 85 2 19.4000 -69.6000 TS 35 8 298
1896243N14300 1896 29 NA NA NOT_NAMED 1896-09-02 03:00:00 TS 19.5191 -69.6950 main 15 10 P____________P AL021896 19.5000 -69.5425 HU 85 2 19.5573 -70.0002 TS 32 8 298
1896243N14300 1896 29 NA NA NOT_NAMED 1896-09-02 06:00:00 TS 19.7000 -70.0667 85 hurdat_atl main 11 11 O____________O hurdat_atl AL021896 19.7000 -69.9000 HU 85 2 19.7000 -70.4000 TD 30 8 296
1896243N14300 1896 29 NA NA NOT_NAMED 1896-09-02 09:00:00 TS 19.8549 -70.4426 main 22 11 P____________P AL021896 19.8574 -70.2426 HU 85 2 19.8499 -70.8426 TD 30 8 293
1896243N14300 1896 29 NA NA NOT_NAMED 1896-09-02 12:00:00 TS 20.0000 -70.8333 85 hurdat_atl main 22 22 O____________O hurdat_atl AL021896 20.0000 -70.6000 HU 85 2 20.0000 -71.3000 TD 30 8 292
1896243N14300 1896 29 NA NA NOT_NAMED 1896-09-02 15:00:00 TS 20.1524 -71.2425 main 44 44 P____________P AL021896 20.1500 -70.9926 HU 85 2 20.1573 -71.7425 TD 30 8 291
1896243N14300 1896 29 NA NA NOT_NAMED 1896-09-02 18:00:00 TS 20.3000 -71.6667 85 hurdat_atl main 55 55 O____________O hurdat_atl AL021896 20.3000 -71.4000 HU 85 2 20.3000 -72.2000 TD 30 8 289
1896243N14300 1896 29 NA NA NOT_NAMED 1896-09-02 21:00:00 TS 20.4332 -72.0926 main 74 67 P____________P AL021896 20.4499 -71.7926 HU 85 2 20.3999 -72.6927 TD 30 9 288
1896243N14300 1896 29 NA NA NOT_NAMED 1896-09-03 00:00:00 TS 20.5667 -72.5333 85 hurdat_atl main 76 35 O____________O hurdat_atl AL021896 20.6000 -72.2000 HU 85 2 20.5000 -73.2000 TD 30 9 288
1896243N14300 1896 29 NA NA NOT_NAMED 1896-09-03 03:00:00 TS 20.7166 -73.0000 main 35 11 P____________P AL021896 20.7500 -72.6500 HU 85 2 20.6499 -73.7000 TD 30 9 289
1896243N14300 1896 29 NA NA NOT_NAMED 1896-09-03 06:00:00 TS 20.8667 -73.4667 85 hurdat_atl main 10 0 O____________O hurdat_atl AL021896 20.9000 -73.1000 HU 85 2 20.8000 -74.2000 TD 30 9 289
1896243N14300 1896 29 NA NA NOT_NAMED 1896-09-03 09:00:00 TS 21.0024 -73.9101 main 20 20 P____________P AL021896 21.0499 -73.5076 HU 85 2 20.9075 -74.7151 TD 30 9 288
1896243N14300 1896 29 NA NA NOT_NAMED 1896-09-03 12:00:00 TS 21.1333 -74.3333 85 hurdat_atl main 62 62 O____________O hurdat_atl AL021896 21.2000 -73.9000 HU 85 2 21.0000 -75.2000 TD 30 8 288
1896243N14300 1896 29 NA NA NOT_NAMED 1896-09-03 15:00:00 TS 21.2641 -74.7509 main 78 68 P____________P AL021896 21.3500 -74.3076 HU 85 2 21.0924 -75.6376 TD 30 8 290
1896243N14300 1896 29 NA NA NOT_NAMED 1896-09-03 18:00:00 TS 21.4000 -75.1333 85 hurdat_atl main 68 59 O____________O hurdat_atl AL021896 21.5000 -74.7000 HU 85 2 21.2000 -76.0000 TD 30 7 293
1896243N14300 1896 29 NA NA NOT_NAMED 1896-09-03 21:00:00 TS 21.5398 -75.4576 main 56 56 P____________P AL021896 21.6423 -75.0502 HU 85 2 21.3348 -76.2726 TD 30 7 297
1896243N14300 1896 29 NA NA NOT_NAMED 1896-09-04 00:00:00 TS 21.7000 -75.7667 85 hurdat_atl main 69 63 O____________O hurdat_atl AL021896 21.8000 -75.4000 HU 85 2 21.5000 -76.5000 TD 30 7 299
1896243N14300 1896 29 NA NA NOT_NAMED 1896-09-04 03:00:00 TS 21.8850 -76.1242 main 78 78 P____________P AL021896 21.9851 -75.8075 HU 85 2 21.6850 -76.7575 TD 30 8 302
1896243N14300 1896 29 NA NA NOT_NAMED 1896-09-04 06:00:00 TS 22.1000 -76.4667 85 hurdat_atl main 76 69 O____________O hurdat_atl AL021896 22.2000 -76.2000 HU 85 2 21.9000 -77.0000 TD 30 7 308
1896243N14300 1896 29 NA NA NOT_NAMED 1896-09-04 09:00:00 TS 22.3374 -76.7584 main 73 73 P____________P AL021896 22.4349 -76.5301 HU 85 2 22.1425 -77.2150 TD 30 7 315
1896243N14300 1896 29 NA NA NOT_NAMED 1896-09-04 12:00:00 TS 22.6000 -77.0000 85 hurdat_atl main 101 101 O____________O hurdat_atl AL021896 22.7000 -76.8000 HU 85 2 22.4000 -77.4000 TD 30 7 322
1896243N14300 1896 29 NA NA NOT_NAMED 1896-09-04 15:00:00 TS 22.8783 -77.2109 main 127 123 P____________P AL021896 22.9925 -77.0375 HU 87 2 22.6500 -77.5576 TD 35 7 329
1896243N14300 1896 29 NA NA NOT_NAMED 1896-09-04 18:00:00 TS 23.1667 -77.3667 90 hurdat_atl main 127 102 O____________O hurdat_atl AL021896 23.3000 -77.2000 HU 90 2 22.9000 -77.7000 TS 40 6 337
1896243N14300 1896 29 NA NA NOT_NAMED 1896-09-04 21:00:00 TS 23.4500 -77.4701 main 102 75 P____________P AL021896 23.6000 -77.2801 HU 92 2 23.1500 -77.8501 TS 45 6 345
1896243N14300 1896 29 NA NA NOT_NAMED 1896-09-05 00:00:00 TS 23.7333 -77.5333 95 hurdat_atl main 75 45 O____________O hurdat_atl AL021896 23.9000 -77.3000 HU 95 2 23.4000 -78.0000 TS 50 6 348
1896243N14300 1896 29 NA NA NOT_NAMED 1896-09-05 03:00:00 TS 24.0167 -77.6008 main 45 24 P____________P AL021896 24.1925 -77.3150 HU 97 3 23.6650 -78.1724 TS 55 6 351
1896243N14300 1896 29 NA NA NOT_NAMED 1896-09-05 06:00:00 TS 24.3000 -77.6333 100 hurdat_atl main 24 10 O____________O hurdat_atl AL021896 24.5000 -77.3000 HU 100 3 23.9000 -78.3000 TS 60 6 0
1896243N14300 1896 29 NA NA NOT_NAMED 1896-09-05 09:00:00 TS 24.5808 -77.6175 main 15 15 P____________P AL021896 24.8425 -77.2650 HU 100 3 24.0575 -78.3226 TS 70 6 5
1896243N14300 1896 29 NA NA NOT_NAMED 1896-09-05 12:00:00 TS 24.8667 -77.5667 100 hurdat_atl main 30 30 O____________O hurdat_atl AL021896 25.2000 -77.2000 HU 100 3 24.2000 -78.3000 HU 80 6 10
1896243N14300 1896 29 NA NA NOT_NAMED 1896-09-05 15:00:00 TS 25.1717 -77.5050 main 51 51 P____________P AL021896 25.5575 -77.1075 HU 100 3 24.4000 -78.3000 HU 80 6 11
1896243N14300 1896 29 NA NA NOT_NAMED 1896-09-05 18:00:00 TS 25.4667 -77.4333 100 hurdat_atl main 75 75 O____________O hurdat_atl AL021896 25.9000 -77.0000 HU 100 3 24.6000 -78.3000 HU 80 5 12
1896243N14300 1896 29 NA NA NOT_NAMED 1896-09-05 21:00:00 TS 25.6916 -77.3913 main 90 90 P____________P AL021896 26.1999 -76.9148 HU 100 3 24.6749 -78.3444 HU 85 5 14
1896243N14300 1896 29 NA NA NOT_NAMED 1896-09-06 00:00:00 TS 25.9667 -77.3000 100 hurdat_atl main 122 122 O____________O hurdat_atl AL021896 26.5000 -76.8000 HU 100 3 24.9000 -78.3000 HU 90 8 17
1896243N14300 1896 29 NA NA NOT_NAMED 1896-09-06 03:00:00 TS 26.4053 -77.1460 main 170 170 P____________P AL021896 26.8499 -76.6300 HU 100 3 25.5159 -78.1779 HU 90 10 24
1896243N14300 1896 29 NA NA NOT_NAMED 1896-09-06 06:00:00 TS 26.9000 -76.8333 100 hurdat_atl main 234 234 O____________O hurdat_atl AL021896 27.2000 -76.4000 HU 100 3 26.3000 -77.7000 HU 90 12 40
1896243N14300 1896 29 NA NA NOT_NAMED 1896-09-06 09:00:00 TS 27.3520 -76.2620 main 307 307 P____________P AL021896 27.4999 -76.1297 HU 100 3 27.0563 -76.5266 HU 92 14 51
1896243N14300 1896 29 NA NA NOT_NAMED 1896-09-06 12:00:00 TS 27.7667 -75.6333 100 hurdat_atl main 384 384 O____________O hurdat_atl AL021896 27.8000 -75.8000 HU 100 3 27.7000 -75.3000 HU 95 12 51
1896243N14300 1896 29 NA NA NOT_NAMED 1896-09-06 15:00:00 TS 28.1310 -75.1883 main 435 435 P____________P AL021896 28.1499 -75.4225 HU 100 3 28.0932 -74.7199 HU 100 10 46
1896243N14300 1896 29 NA NA NOT_NAMED 1896-09-06 18:00:00 TS 28.4667 -74.8000 100 hurdat_atl main 494 494 O____________O hurdat_atl AL021896 28.5000 -75.0000 HU 100 3 28.4000 -74.4000 MH 105 948 10 47
1896243N14300 1896 29 NA NA NOT_NAMED 1896-09-06 21:00:00 TS 28.7924 -74.3829 main 545 545 P____________P AL021896 28.7999 -74.5571 HU 100 3 28.7773 -74.0345 MH 102 952 10 48
1896243N14300 1896 29 NA NA NOT_NAMED 1896-09-07 00:00:00 TS 29.1333 -73.9667 100 956 hurdat_atl main 596 596 O____________O hurdat_atl AL021896 29.1000 -74.1000 HU 100 956 3 29.2000 -73.7000 MH 100 956 10 45
1896243N14300 1896 29 NA NA NOT_NAMED 1896-09-07 03:00:00 TS 29.5307 -73.5499 main 644 618 P____________P AL021896 29.4498 -73.6499 HU 100 3 29.6924 -73.3499 MH 100 955 11 42
1896243N14300 1896 29 NA NA NOT_NAMED 1896-09-07 06:00:00 TS 29.9333 -73.1333 100 hurdat_atl main 623 605 O____________I hurdat_atl AL021896 29.8000 -73.2000 HU 100 3 30.2000 -73.0000 MH 100 955 10 44
1896243N14300 1896 29 NA NA NOT_NAMED 1896-09-07 09:00:00 TS 30.2758 -72.7062 main 605 596 P____________P AL021896 30.0849 -72.7419 HU 100 3 30.6575 -72.6348 MH 100 955 10 46
1896243N14300 1896 29 NA NA NOT_NAMED 1896-09-07 12:00:00 TS 30.6333 -72.3000 100 hurdat_atl main 602 588 O____________O hurdat_atl AL021896 30.4000 -72.3000 HU 100 3 31.1000 -72.3000 MH 100 955 10 40
1896243N14300 1896 29 NA NA NOT_NAMED 1896-09-07 15:00:00 TS 31.0581 -71.9421 main 587 571 P____________P AL021896 30.8123 -71.8921 HU 100 3 31.5498 -72.0419 MH 100 11 34
1896243N14300 1896 29 NA NA NOT_NAMED 1896-09-07 18:00:00 TS 31.5333 -71.6000 100 hurdat_atl main 577 563 O____________O hurdat_atl AL021896 31.3000 -71.5000 HU 100 3 32.0000 -71.8000 MH 100 11 32
1896243N14300 1896 29 NA NA NOT_NAMED 1896-09-07 21:00:00 TS 32.0324 -71.2330 main 572 560 P____________P AL021896 31.8274 -71.0923 HU 100 3 32.4424 -71.5146 MH 97 12 31
1896243N14300 1896 29 NA NA NOT_NAMED 1896-09-08 00:00:00 TS 32.5667 -70.8667 100 hurdat_atl main 552 545 O____________O hurdat_atl AL021896 32.4000 -70.7000 HU 100 3 32.9000 -71.2000 HU 95 13 29
1896243N14300 1896 29 NA NA NOT_NAMED 1896-09-08 03:00:00 TS 33.1333 -70.4991 main 547 536 P____________P AL021896 33.0074 -70.3274 HU 100 3 33.3851 -70.8425 HU 92 13 27
1896243N14300 1896 29 NA NA NOT_NAMED 1896-09-08 06:00:00 TS 33.7000 -70.1667 100 hurdat_atl main 536 534 O____________O hurdat_atl AL021896 33.6000 -70.0000 HU 100 3 33.9000 -70.5000 HU 90 12 25
1896243N14300 1896 29 NA NA NOT_NAMED 1896-09-08 09:00:00 TS 34.2416 -69.8815 main 539 535 P____________P AL021896 34.1299 -69.7197 HU 100 3 34.4650 -70.2052 HU 90 11 22
1896243N14300 1896 29 NA NA NOT_NAMED 1896-09-08 12:00:00 TS 34.7333 -69.6667 100 hurdat_atl main 539 536 O____________O hurdat_atl AL021896 34.6000 -69.5000 HU 100 3 35.0000 -70.0000 HU 90 969 10 18
1896243N14300 1896 29 NA NA NOT_NAMED 1896-09-08 15:00:00 TS 35.1533 -69.5147 main 545 542 P____________P AL021896 35.0149 -69.3197 HU 100 3 35.4299 -69.9046 HU 87 972 8 13
1896243N14300 1896 29 NA NA NOT_NAMED 1896-09-08 18:00:00 TS 35.5333 -69.4333 100 hurdat_atl main 550 548 O____________O hurdat_atl AL021896 35.4000 -69.2000 HU 100 3 35.8000 -69.9000 HU 85 975 8 7
1896243N14300 1896 29 NA NA NOT_NAMED 1896-09-08 21:00:00 TS 35.9166 -69.3916 main 548 548 P____________P AL021896 35.8000 -69.1273 HU 100 3 36.1500 -69.9201 HU 82 8 0
1896243N14300 1896 29 NA NA NOT_NAMED 1896-09-09 00:00:00 TS 36.3000 -69.4000 100 hurdat_atl main 549 529 O____________O hurdat_atl AL021896 36.2000 -69.1000 HU 100 3 36.5000 -70.0000 HU 80 8 356
1896243N14300 1896 29 NA NA NOT_NAMED 1896-09-09 03:00:00 TS 36.6975 -69.4350 main 529 490 P____________P AL021896 36.6000 -69.0924 HU 97 3 36.8925 -70.1201 HU 77 8 354
1896243N14300 1896 29 NA NA NOT_NAMED 1896-09-09 06:00:00 TS 37.1000 -69.5000 95 hurdat_atl main 490 448 O____________O hurdat_atl AL021896 37.0000 -69.1000 HU 95 2 37.3000 -70.3000 HU 75 8 352
1896243N14300 1896 29 NA NA NOT_NAMED 1896-09-09 09:00:00 TS 37.4976 -69.5808 main 448 407 P____________P AL021896 37.4000 -69.0852 HU 92 2 37.6927 -70.5719 HU 72 8 351
1896243N14300 1896 29 NA NA NOT_NAMED 1896-09-09 12:00:00 TS 37.9000 -69.6667 90 hurdat_atl main 407 366 O____________O hurdat_atl AL021896 37.8000 -69.1000 HU 90 2 38.1000 -70.8000 HU 70 974 8 352
1896243N14300 1896 29 NA NA NOT_NAMED 1896-09-09 15:00:00 TS 38.3166 -69.7334 main 366 320 P____________P AL021896 38.2075 -69.1701 HU 87 2 38.5349 -70.8602 HU 67 8 353
1896243N14300 1896 29 NA NA NOT_NAMED 1896-09-09 18:00:00 TS 38.7333 -69.8000 85 hurdat_atl main 320 275 O____________O hurdat_atl AL021896 38.6000 -69.3000 HU 85 2 39.0000 -70.8000 HU 65 8 352
1896243N14300 1896 29 NA NA NOT_NAMED 1896-09-09 21:00:00 TS 39.1408 -69.8834 main 275 230 P____________P AL021896 38.9575 -69.4776 HU 82 1 39.5074 -70.6950 HU 62 8 351
1896243N14300 1896 29 NA NA NOT_NAMED 1896-09-10 00:00:00 TS 39.5333 -69.9667 80 hurdat_atl main 230 187 O____________O hurdat_atl AL021896 39.3000 -69.7000 HU 80 1 40.0000 -70.5000 TS 60 8 351
1896243N14300 1896 29 NA NA NOT_NAMED 1896-09-10 03:00:00 TS 39.8926 -70.0361 main 187 153 P____________P AL021896 39.6275 -69.9502 HU 77 1 40.4227 -70.2078 TS 57 7 352
1896243N14300 1896 29 NA NA NOT_NAMED 1896-09-10 06:00:00 MX 40.2667 -70.1000 75 hurdat_atl main 142 98 O____________O hurdat_atl AL021896 40.0000 -70.2000 HU 75 1 40.8000 -69.9000 EX 55 982 8 351
1896243N14300 1896 29 NA NA NOT_NAMED 1896-09-10 09:00:00 MX 40.6867 -70.1988 main 98 58 P____________P AL021896 40.4550 -70.4596 HU 72 1 41.1499 -69.6770 EX 52 9 354
1896243N14300 1896 29 NA NA NOT_NAMED 1896-09-10 12:00:00 MX 41.1667 -70.2333 70 hurdat_atl main 47 37 O____________O hurdat_atl AL021896 41.0000 -70.6000 HU 70 1 41.5000 -69.5000 EX 50 10 0
1896243N14300 1896 29 NA NA NOT_NAMED 1896-09-10 13:00:00 MX 41.3417 -70.2156 70 hurdat_atl main 37 13 O____________P hurdat_atl AL021896 41.2000 -70.6000 L HU 70 1 41.6250 -69.4467 EX 50 10 0
1896243N14300 1896 29 NA NA NOT_NAMED 1896-09-10 15:00:00 MX 41.6595 -70.2080 main 0 0 P____________P AL021896 41.5469 -70.6373 HU 63 0 41.8849 -69.3495 EX 50 9 0
1896243N14300 1896 29 NA NA NOT_NAMED 1896-09-10 18:00:00 MX 42.1000 -70.2000 55 hurdat_atl main 33 33 O____________O hurdat_atl AL021896 42.0000 -70.7000 TS 55 0 42.3000 -69.2000 EX 50 9 5
1896243N14300 1896 29 NA NA NOT_NAMED 1896-09-10 21:00:00 MX 42.5860 -70.0966 main 40 40 P____________P AL021896 42.5040 -70.6411 TS 52 0 42.7500 -69.0075 EX 47 10 12
1896243N14300 1896 29 NA NA NOT_NAMED 1896-09-11 00:00:00 ET 43.0667 -69.9333 50 hurdat_atl main 46 22 O____________O hurdat_atl AL021896 43.0000 -70.5000 EX 50 -4 43.2000 -68.8000 EX 45 10 15
1896243N14300 1896 29 NA NA NOT_NAMED 1896-09-11 03:00:00 ET 43.5075 -69.7481 main 23 0 P____________P AL021896 43.4575 -70.3223 EX 47 -4 43.6075 -68.5997 EX 40 9 14
1896243N14300 1896 29 NA NA NOT_NAMED 1896-09-11 06:00:00 ET 43.9273 -69.6364 45 hurdat_atl main 0 0 O____________O hurdat_atl AL021896 43.9000 -70.1000 EX 45 -4 44.0000 -68.4000 EX 35 9 11
1896243N14300 1896 29 NA NA NOT_NAMED 1896-09-11 09:00:00 ET 44.3595 -69.5318 main 0 0 P____________P AL021896 44.3499 -69.8646 EX 42 -4 44.3976 -68.2006 EX 32 9 12
1896243N14300 1896 29 NA NA NOT_NAMED 1896-09-11 12:00:00 ET 44.8000 -69.3714 40 hurdat_atl main 0 0 O____________O hurdat_atl AL021896 44.8000 -69.6000 EX 40 -4 44.8000 -68.0000 EX 30 9 10
1896243N14300 1896 29 NA NA NOT_NAMED 1896-09-11 15:00:00 ET 45.2502 -69.3085 main 0 0 P_____________ AL021896 45.2502 -69.3085 EX 40 -4 EX 9 16
1896243N14300 1896 29 NA NA NOT_NAMED 1896-09-11 18:00:00 ET 45.7000 -69.0000 40 hurdat_atl main 0 O_____________ hurdat_atl AL021896 45.7000 -69.0000 EX 40 -4 10 26

IBTrACS Databaseについて

本データベースは、米国NOAAが公開する1842年以降の世界の熱帯低気圧のベストトラックデータアーカイブInternational Best Track Archive for Climate Stewardship (IBTrACS)を、ウェブで閲覧しやすい形式に変換したものです。

最終更新日:2021-12-01